Time;durP1;ratioP1;P1;durP2;ratioP2;P2;SDS_P1;SDS_P2;PMS_P1;PMS_P2;Temp;Humidity;BMP_temperature;BMP_pressure;BME280_temperature;BME280_humidity;BME280_pressure;Samples;Min_cycle;Max_cycle;Signal;HPM_P1;HPM_P2
2022/04/09 00:00:31;;;;;;;4.20;1.45;;;6.20;99.90;;;5.82;79.78;99691.38;5207717;28;20052;-69
2022/04/09 00:03:03;;;;;;;6.57;1.98;;;6.20;99.90;;;5.77;79.96;99699.81;5207174;28;20144;-70
2022/04/09 00:05:35;;;;;;;2.50;1.63;;;6.10;99.90;;;5.77;80.08;99705.84;5207283;28;20045;-69
2022/04/09 00:08:08;;;;;;;5.53;1.67;;;6.10;99.90;;;5.72;80.35;99712.56;5207444;28;20049;-69
2022/04/09 00:10:41;;;;;;;6.35;1.83;;;6.00;99.90;;;5.66;80.37;99709.75;5206992;28;20461;-70
2022/04/09 00:13:13;;;;;;;5.15;1.30;;;6.00;99.90;;;5.67;80.36;99724.41;5207250;28;20063;-69
2022/04/09 00:15:45;;;;;;;5.70;1.48;;;6.00;99.90;;;5.66;80.87;99727.84;5207214;28;20050;-69
2022/04/09 00:18:17;;;;;;;9.02;1.73;;;6.00;99.90;;;5.65;81.41;99726.09;5207450;28;20482;-69
2022/04/09 00:20:49;;;;;;;6.50;1.95;;;5.90;99.90;;;5.62;80.98;99732.03;5206792;28;20046;-69
2022/04/09 00:23:23;;;;;;;5.78;1.70;;;5.90;99.90;;;5.60;81.50;99744.00;5206747;28;20053;-69
2022/04/09 00:25:55;;;;;;;6.35;1.70;;;5.90;99.90;;;5.61;82.21;99750.97;5207296;28;20099;-69
2022/04/09 00:28:27;;;;;;;6.80;1.77;;;5.90;99.90;;;5.63;82.10;99762.22;5206807;28;20057;-70
2022/04/09 00:30:59;;;;;;;6.40;2.08;;;6.00;99.90;;;5.67;81.67;99764.13;5206963;28;20056;-71
2022/04/09 00:33:31;;;;;;;5.88;1.65;;;5.90;99.90;;;5.68;82.12;99771.03;5206544;28;20536;-69
2022/04/09 00:36:04;;;;;;;5.28;1.58;;;5.90;99.90;;;5.68;82.17;99776.22;5207039;28;20533;-68
2022/04/09 00:38:38;;;;;;;9.82;2.05;;;5.90;99.90;;;5.70;81.81;99774.56;5207064;28;20064;-70
2022/04/09 00:41:10;;;;;;;5.40;2.00;;;5.90;99.90;;;5.68;82.23;99777.94;5206692;28;20050;-70
2022/04/09 00:43:43;;;;;;;4.50;1.92;;;5.90;99.90;;;5.64;82.27;99791.53;5206529;28;20056;-69
2022/04/09 00:46:15;;;;;;;8.23;2.10;;;5.90;99.90;;;5.65;82.26;99798.47;5206633;28;20485;-69
2022/04/09 00:48:47;;;;;;;9.80;2.58;;;5.90;99.90;;;5.62;82.39;99804.41;5206597;28;20046;-69
2022/04/09 00:51:19;;;;;;;6.68;1.92;;;5.90;99.90;;;5.57;82.83;99805.94;5206546;28;20478;-69
2022/04/09 00:53:55;;;;;;;6.85;1.90;;;5.80;99.90;;;5.58;82.89;99818.03;5206127;28;20053;-69
2022/04/09 00:56:28;;;;;;;6.53;2.47;;;5.80;99.90;;;5.58;83.28;99812.88;5206220;28;20053;-69
2022/04/09 00:59:03;;;;;;;6.85;2.38;;;5.80;99.90;;;5.60;83.66;99821.56;5206463;28;20068;-69
2022/04/09 01:01:35;;;;;;;13.68;2.58;;;5.90;99.90;;;5.67;83.57;99828.75;5205427;28;20045;-71
2022/04/09 01:04:10;;;;;;;7.45;2.22;;;5.80;99.90;;;5.65;83.63;99835.56;5206263;28;20045;-69
2022/04/09 01:06:42;;;;;;;7.43;2.45;;;5.90;99.90;;;5.67;83.80;99835.59;5206079;28;20568;-70
2022/04/09 01:09:15;;;;;;;6.63;2.08;;;5.90;99.90;;;5.65;83.75;99845.88;5206203;28;20055;-69
2022/04/09 01:11:47;;;;;;;8.23;2.22;;;5.90;99.90;;;5.64;83.71;99849.31;5205647;28;20045;-69
2022/04/09 01:14:20;;;;;;;9.38;2.38;;;5.90;99.90;;;5.60;83.62;99859.44;5206344;28;20071;-69
2022/04/09 01:16:52;;;;;;;8.07;2.45;;;5.90;99.90;;;5.61;83.54;99867.28;5205994;28;20049;-70
2022/04/09 01:19:24;;;;;;;11.27;2.08;;;5.90;99.90;;;5.59;83.38;99866.34;5206057;28;20046;-69
2022/04/09 01:22:00;;;;;;;6.47;1.83;;;5.80;99.90;;;5.56;83.99;99876.56;5205712;28;20053;-70
2022/04/09 01:24:32;;;;;;;8.02;2.03;;;5.80;99.90;;;5.60;84.26;99883.59;5205876;28;20046;-69
2022/04/09 01:27:05;;;;;;;7.15;1.77;;;5.80;99.90;;;5.54;84.41;99893.72;5205801;28;20050;-69
2022/04/09 01:29:37;;;;;;;5.57;1.83;;;5.80;99.90;;;5.51;84.78;99888.41;5205776;28;20398;-69
2022/04/09 01:32:09;;;;;;;5.95;1.50;;;5.80;99.90;;;5.54;84.37;99891.13;5205519;28;20045;-70
2022/04/09 01:34:41;;;;;;;7.00;1.95;;;5.80;99.90;;;5.51;84.75;99893.59;5205668;28;20045;-69
2022/04/09 01:37:14;;;;;;;8.68;2.22;;;5.80;99.90;;;5.45;84.71;99903.69;5205904;28;20486;-69
2022/04/09 01:39:46;;;;;;;3.35;1.50;;;5.80;99.90;;;5.44;85.16;99902.78;5205609;28;20405;-69
2022/04/09 01:42:21;;;;;;;3.92;1.38;;;5.70;99.90;;;5.38;85.42;99915.47;5204866;28;20053;-70
2022/04/09 01:44:53;;;;;;;3.72;1.35;;;5.70;99.90;;;5.38;85.22;99922.34;5205551;28;20079;-69
2022/04/09 01:47:25;;;;;;;6.53;2.53;;;5.60;99.90;;;5.30;85.58;99919.44;5205808;28;20406;-70
2022/04/09 01:49:57;;;;;;;7.00;2.10;;;5.60;99.90;;;5.25;85.87;99925.22;5205566;28;20509;-70
2022/04/09 01:52:30;;;;;;;8.40;1.98;;;5.60;99.90;;;5.22;86.20;99930.28;5205285;28;20490;-71
2022/04/09 01:55:03;;;;;;;6.18;1.92;;;5.60;99.90;;;5.30;86.19;99946.97;5205915;28;20406;-70
2022/04/09 01:57:35;;;;;;;5.93;1.70;;;5.50;99.90;;;5.29;85.81;99952.97;5205532;28;20050;-70
2022/04/09 02:00:12;;;;;;;4.32;1.98;;;5.50;99.90;;;5.34;85.69;99954.03;5205398;28;20467;-70
2022/04/09 02:02:45;;;;;;;4.80;1.50;;;5.50;99.90;;;5.32;86.39;99953.09;5205296;28;20140;-69
2022/04/09 02:05:17;;;;;;;5.18;1.70;;;5.60;99.90;;;5.30;86.34;99962.50;5205186;28;20051;-70
2022/04/09 02:07:50;;;;;;;8.00;1.48;;;5.60;99.90;;;5.33;85.89;99975.53;5205314;28;20516;-71
2022/04/09 02:10:22;;;;;;;5.03;1.73;;;5.60;99.90;;;5.32;86.52;99973.75;5205197;28;20049;-69
2022/04/09 02:12:54;;;;;;;6.05;1.70;;;5.60;99.90;;;5.35;85.88;99974.78;5205180;28;20060;-69
2022/04/09 02:15:26;;;;;;;6.60;1.55;;;5.60;99.90;;;5.40;85.68;99978.44;5207002;28;20050;-70
2022/04/09 02:17:58;;;;;;;5.60;1.58;;;5.60;99.90;;;5.35;85.79;99976.50;5209407;28;20060;-69
2022/04/09 02:20:30;;;;;;;4.55;1.83;;;5.60;99.90;;;5.30;85.66;99975.41;5209581;28;20413;-69
2022/04/09 02:23:04;;;;;;;4.93;1.50;;;5.60;99.90;;;5.31;85.78;99995.25;5209091;28;20060;-69
2022/04/09 02:25:36;;;;;;;9.15;1.48;;;5.60;99.90;;;5.37;85.93;99999.00;5209307;28;20052;-70
2022/04/09 02:28:08;;;;;;;5.88;1.50;;;5.60;99.90;;;5.39;86.13;100002.50;5208934;28;20071;-70
2022/04/09 02:30:40;;;;;;;7.50;2.03;;;5.60;99.90;;;5.46;86.22;99998.47;5209600;28;20076;-70
2022/04/09 02:33:12;;;;;;;9.15;2.05;;;5.70;99.90;;;5.50;86.24;100005.56;5208945;28;20144;-71
2022/04/09 02:35:44;;;;;;;8.27;1.90;;;5.70;99.90;;;5.51;86.41;100017.66;5208950;28;20144;-70
2022/04/09 02:38:17;;;;;;;6.90;2.33;;;5.70;99.90;;;5.58;86.22;100024.84;5209440;28;20056;-69
2022/04/09 02:40:49;;;;;;;11.32;2.38;;;5.80;99.90;;;5.64;86.14;100019.06;5209163;28;20425;-70
2022/04/09 02:43:21;;;;;;;8.40;2.63;;;5.80;99.90;;;5.67;86.58;100025.25;5209001;28;20057;-69
2022/04/09 02:45:54;;;;;;;10.20;2.22;;;5.90;99.90;;;5.70;85.95;100027.97;5209426;28;20497;-70
2022/04/09 02:48:27;;;;;;;11.43;2.25;;;5.90;99.90;;;5.75;85.99;100037.63;5208970;28;20053;-70
2022/04/09 02:50:59;;;;;;;8.02;2.28;;;5.90;99.90;;;5.69;84.86;100046.88;5208913;28;20049;-69
2022/04/09 02:53:32;;;;;;;13.88;2.13;;;5.90;99.90;;;5.69;84.46;100053.78;5208788;28;20517;-70
2022/04/09 02:56:05;;;;;;;7.72;2.15;;;5.90;99.90;;;5.65;84.43;100065.66;5208993;28;20175;-71
2022/04/09 02:58:37;;;;;;;12.32;2.28;;;5.90;99.90;;;5.59;84.54;100062.81;5208435;28;20049;-70
2022/04/09 03:01:10;;;;;;;11.70;2.13;;;5.80;99.90;;;5.65;84.69;100065.66;5209272;28;20357;-68
2022/04/09 03:03:41;;;;;;;11.55;2.65;;;5.80;99.90;;;5.64;84.33;100071.66;5208640;28;20123;-69
2022/04/09 03:06:13;;;;;;;14.90;2.22;;;5.80;99.90;;;5.62;84.49;100073.31;5208703;28;20490;-69
2022/04/09 03:08:47;;;;;;;7.70;1.80;;;5.80;99.90;;;5.62;84.12;100083.66;5208442;28;20084;-69
2022/04/09 03:11:19;;;;;;;6.00;1.63;;;5.80;99.90;;;5.61;84.01;100086.19;5208433;28;20045;-69
2022/04/09 03:13:51;;;;;;;7.32;1.75;;;5.80;99.90;;;5.56;83.91;100080.81;5208181;28;20060;-69
2022/04/09 03:16:24;;;;;;;8.75;1.92;;;5.80;99.90;;;5.58;84.27;100094.66;5208438;28;20092;-70
2022/04/09 03:18:56;;;;;;;6.95;1.83;;;5.80;99.90;;;5.55;84.28;100094.53;5208306;28;20565;-69
2022/04/09 03:21:28;;;;;;;8.73;1.95;;;5.80;99.90;;;5.53;84.26;100101.31;5208242;28;20049;-69
2022/04/09 03:24:01;;;;;;;9.65;2.13;;;5.80;99.90;;;5.53;84.14;100113.38;5208117;28;20406;-69
2022/04/09 03:26:33;;;;;;;11.02;2.25;;;5.70;99.90;;;5.49;84.33;100107.19;5207134;28;20406;-69
2022/04/09 03:29:05;;;;;;;12.80;2.00;;;5.70;99.90;;;5.51;84.43;100126.25;5208118;28;20414;-70
2022/04/09 03:31:38;;;;;;;7.97;2.47;;;5.70;99.90;;;5.47;84.02;100118.28;5207720;28;20049;-70
2022/04/09 03:34:10;;;;;;;7.43;1.90;;;5.70;99.90;;;5.43;84.37;100114.69;5207805;28;20049;-70
2022/04/09 03:36:43;;;;;;;8.30;2.10;;;5.70;99.90;;;5.45;84.50;100125.97;5207927;28;20132;-70
2022/04/09 03:39:16;;;;;;;9.55;1.77;;;5.70;99.90;;;5.48;84.68;100126.13;5208130;28;20053;-70
2022/04/09 03:41:48;;;;;;;6.25;1.75;;;5.70;99.90;;;5.47;84.46;100124.31;5207609;28;20051;-70
2022/04/09 03:44:20;;;;;;;4.07;1.33;;;5.70;99.90;;;5.48;84.48;100136.47;5208024;28;20049;-70
2022/04/09 03:46:59;;;;;;;8.32;2.10;;;5.70;99.90;;;5.51;84.45;100135.69;5207469;28;20049;-70
2022/04/09 03:49:31;;;;;;;10.35;1.67;;;5.80;99.90;;;5.57;84.49;100143.72;5208090;28;20049;-70
2022/04/09 03:52:04;;;;;;;12.13;1.92;;;5.80;99.90;;;5.61;84.18;100151.69;5207293;28;20056;-70
2022/04/09 03:54:38;;;;;;;12.52;2.70;;;5.80;99.90;;;5.67;84.09;100153.63;5207928;28;20060;-70
2022/04/09 03:57:10;;;;;;;15.00;2.20;;;5.80;99.90;;;5.70;84.13;100162.44;5207560;28;20052;-69
2022/04/09 03:59:43;;;;;;;12.32;3.40;;;5.90;99.90;;;5.77;84.14;100160.13;5207828;28;20522;-69
2022/04/09 04:02:15;;;;;;;10.02;2.67;;;5.90;99.90;;;5.80;83.75;100168.00;5207320;28;20045;-70
2022/04/09 04:04:47;;;;;;;10.73;2.65;;;6.00;99.90;;;5.81;83.66;100172.38;5207426;28;20052;-69
2022/04/09 04:07:22;;;;;;;10.25;2.85;;;6.00;99.90;;;5.80;84.33;100165.41;5207385;28;20063;-70
2022/04/09 04:09:56;;;;;;;8.80;2.42;;;6.00;99.90;;;5.83;83.53;100175.91;5207521;28;20111;-70
2022/04/09 04:12:28;;;;;;;9.70;2.22;;;6.00;99.90;;;5.84;83.58;100182.84;5206713;28;20495;-69
2022/04/09 04:15:00;;;;;;;14.43;2.42;;;6.00;99.90;;;5.85;83.61;100182.91;5207284;28;20056;-70
2022/04/09 04:17:39;;;;;;;9.48;2.47;;;6.00;99.90;;;5.84;83.50;100193.19;5207525;28;20137;-69
2022/04/09 04:20:14;;;;;;;11.32;2.83;;;6.00;99.90;;;5.84;84.07;100183.72;5207155;28;20375;-69
2022/04/09 04:22:46;;;;;;;11.55;2.88;;;6.10;99.90;;;5.86;83.82;100196.72;5206733;28;20045;-69
2022/04/09 04:25:20;;;;;;;7.32;2.35;;;6.00;99.90;;;5.90;83.58;100196.03;5207381;28;20049;-69
2022/04/09 04:27:52;;;;;;;13.88;2.47;;;6.10;99.90;;;5.89;83.02;100197.75;5207023;28;20088;-69
2022/04/09 04:30:24;;;;;;;13.40;2.55;;;6.00;99.90;;;5.87;83.89;100201.97;5206525;28;20486;-69
2022/04/09 04:32:56;;;;;;;17.73;2.90;;;6.10;99.90;;;5.90;83.72;100201.22;5206870;28;20132;-69
2022/04/09 04:35:28;;;;;;;11.35;2.00;;;6.10;99.90;;;5.91;83.30;100208.19;5207216;28;20053;-70
2022/04/09 04:38:00;;;;;;;7.40;2.15;;;6.10;99.90;;;5.89;83.69;100221.03;5206861;28;20141;-70
2022/04/09 04:40:34;;;;;;;11.75;1.92;;;6.10;99.90;;;5.90;83.42;100224.50;5325010;23;20045;-71
2022/04/09 04:43:07;;;;;;;10.07;2.40;;;6.10;99.90;;;5.88;83.19;100218.38;5224045;28;20088;-70
2022/04/09 04:45:39;;;;;;;12.80;2.75;;;6.10;99.90;;;5.93;83.23;100229.84;5227221;28;20049;-70
2022/04/09 04:48:11;;;;;;;11.73;2.22;;;6.10;99.90;;;5.95;83.46;100230.81;5227196;28;20059;-71
2022/04/09 04:50:43;;;;;;;12.23;2.95;;;6.10;99.90;;;5.92;83.24;100233.25;5226864;28;20132;-69
2022/04/09 04:53:15;;;;;;;6.35;2.50;;;6.10;99.90;;;5.92;83.09;100239.28;5226604;28;20056;-70
2022/04/09 04:55:48;;;;;;;12.98;2.55;;;6.10;99.90;;;5.92;83.01;100239.28;5226888;28;20492;-70
2022/04/09 04:58:21;;;;;;;11.80;2.80;;;6.10;99.90;;;5.90;83.48;100245.19;5226714;28;20497;-71
2022/04/09 05:00:53;;;;;;;7.75;2.33;;;6.10;99.90;;;5.94;83.05;100247.16;5226745;28;20045;-71
2022/04/09 05:03:25;;;;;;;12.90;3.15;;;6.10;99.90;;;5.93;83.10;100255.69;5227005;28;20095;-71
2022/04/09 05:05:57;;;;;;;10.68;3.28;;;6.10;99.90;;;5.90;83.22;100256.44;5227008;28;20135;-71
2022/04/09 05:08:29;;;;;;;10.85;2.60;;;6.10;99.90;;;5.90;83.17;100263.31;5226812;28;20044;-69
2022/04/09 05:11:03;;;;;;;9.25;3.50;;;6.10;99.90;;;5.90;83.08;100271.06;5226680;28;20500;-70
2022/04/09 05:13:35;;;;;;;8.65;2.88;;;6.10;99.90;;;5.86;82.80;100279.50;5226709;28;20045;-69
2022/04/09 05:16:07;;;;;;;8.35;2.53;;;6.00;99.90;;;5.87;83.32;100276.13;5226712;28;20055;-70
2022/04/09 05:18:39;;;;;;;9.00;2.63;;;6.10;99.90;;;5.83;83.06;100281.94;5226834;28;20044;-70
2022/04/09 05:21:11;;;;;;;9.88;3.05;;;6.00;99.90;;;5.87;83.09;100287.34;5226453;28;20048;-70
2022/04/09 05:23:43;;;;;;;12.88;3.28;;;6.10;99.90;;;5.90;83.08;100296.94;5226340;28;20136;-69
2022/04/09 05:26:16;;;;;;;13.02;3.17;;;6.10;99.90;;;5.95;82.95;100295.47;5226551;28;20501;-69
2022/04/09 05:28:53;;;;;;;9.10;2.53;;;6.10;99.90;;;5.89;82.87;100300.34;5226751;28;20053;-71
2022/04/09 05:31:27;;;;;;;9.27;2.65;;;6.00;99.90;;;5.91;82.71;100298.72;5225986;28;20080;-71
2022/04/09 05:33:59;;;;;;;14.23;2.80;;;6.00;99.90;;;5.92;82.90;100316.03;5226145;28;20057;-70
2022/04/09 05:36:31;;;;;;;11.27;3.05;;;6.00;99.90;;;5.90;83.20;100327.97;5226384;28;20051;-71
2022/04/09 05:39:04;;;;;;;10.07;2.67;;;6.10;99.90;;;5.94;82.63;100322.19;5226327;28;20045;-69
2022/04/09 05:41:37;;;;;;;9.60;2.60;;;6.10;99.90;;;5.91;82.88;100334.94;5225829;28;20448;-69
2022/04/09 05:44:09;;;;;;;12.40;3.22;;;6.10;99.90;;;5.93;83.14;100330.72;5226285;28;20425;-69
2022/04/09 05:46:41;;;;;;;8.63;2.47;;;6.10;99.90;;;5.90;83.42;100333.16;5226205;28;20084;-70
2022/04/09 05:49:13;;;;;;;10.77;2.83;;;6.10;99.90;;;5.89;83.11;100332.25;5225956;28;20091;-70
2022/04/09 05:51:45;;;;;;;10.00;2.38;;;6.10;99.90;;;5.96;83.46;100343.81;5225483;28;20080;-69
2022/04/09 05:54:17;;;;;;;11.55;3.05;;;6.10;99.90;;;5.98;82.86;100337.00;5225927;28;20045;-71
2022/04/09 05:56:51;;;;;;;12.75;3.10;;;6.20;99.90;;;6.02;82.91;100349.28;5225985;28;20111;-71
2022/04/09 05:59:25;;;;;;;10.75;3.17;;;6.20;99.90;;;6.07;82.86;100352.06;5226078;28;20059;-69
2022/04/09 06:01:57;;;;;;;14.95;2.72;;;6.20;99.90;;;6.08;83.09;100353.84;5225716;28;20045;-70
2022/04/09 06:04:29;;;;;;;10.82;2.47;;;6.20;99.90;;;6.13;82.60;100357.50;5225845;28;20135;-70
2022/04/09 06:07:02;;;;;;;11.50;2.47;;;6.20;99.90;;;6.45;82.90;100362.41;5225646;28;20051;-69
2022/04/09 06:09:34;;;;;;;7.10;2.42;;;6.40;99.90;;;7.01;82.76;100366.59;5226023;28;20051;-69
2022/04/09 06:12:09;;;;;;;15.15;2.38;;;6.70;99.90;;;8.15;79.91;100357.31;5225359;28;20049;-70
2022/04/09 06:14:41;;;;;;;10.52;2.65;;;7.30;99.90;;;9.24;75.29;100368.97;5226141;28;20133;-70
2022/04/09 06:17:13;;;;;;;7.85;1.70;;;8.00;99.90;;;10.49;69.82;100374.59;5225653;28;20053;-69
2022/04/09 06:19:46;;;;;;;10.27;2.13;;;8.80;99.90;;;10.93;64.80;100381.03;5225751;28;20076;-70
2022/04/09 06:22:19;;;;;;;8.63;2.35;;;9.40;99.90;;;10.41;62.86;100384.81;5225501;28;20156;-70
2022/04/09 06:24:51;;;;;;;8.02;2.20;;;9.50;99.90;;;9.64;63.84;100383.28;5225987;28;20053;-69
2022/04/09 06:27:24;;;;;;;11.05;2.13;;;9.20;99.90;;;9.01;65.89;100389.00;5225891;28;20049;-68
2022/04/09 06:29:56;;;;;;;7.50;1.95;;;8.80;99.90;;;9.66;66.51;100394.66;5225639;28;20049;-70
2022/04/09 06:32:28;;;;;;;12.30;2.53;;;9.00;99.90;;;11.12;62.82;100409.38;5225611;28;20049;-69
2022/04/09 06:35:00;;;;;;;13.02;2.03;;;9.60;99.90;;;11.44;59.69;100413.66;5226114;28;20044;-69
2022/04/09 06:37:32;;;;;;;8.18;2.17;;;10.00;99.90;;;10.83;60.19;100415.56;5225916;28;20725;-69
2022/04/09 06:40:09;;;;;;;8.23;2.55;;;10.00;99.40;;;11.14;61.79;100417.25;5225344;28;20099;-70
2022/04/09 06:42:43;;;;;;;8.05;2.22;;;10.10;99.90;;;12.25;56.89;100420.84;5225640;28;20064;-69
2022/04/09 06:45:16;;;;;;;10.05;2.22;;;10.80;98.20;;;11.87;56.39;100426.09;5225613;28;20059;-70
2022/04/09 06:47:48;;;;;;;10.10;2.28;;;10.80;96.80;;;11.75;58.01;100431.88;5225799;28;20045;-70
2022/04/09 06:50:20;;;;;;;13.80;2.42;;;10.80;97.40;;;12.73;54.89;100432.34;5225643;28;20489;-69
2022/04/09 06:52:52;;;;;;;13.98;2.50;;;11.30;96.20;;;13.34;52.32;100437.88;5224902;28;20141;-70
2022/04/09 06:55:24;;;;;;;10.88;2.20;;;11.70;94.70;;;12.63;52.60;100443.44;5225414;28;20051;-70
2022/04/09 06:58:03;;;;;;;9.35;2.00;;;11.60;93.00;;;11.66;54.74;100448.16;5225494;28;20055;-69
2022/04/09 07:00:35;;;;;;;12.32;2.65;;;11.10;93.40;;;11.01;56.78;100455.16;5225654;28;20131;-69
2022/04/09 07:03:07;;;;;;;11.10;2.45;;;10.60;94.40;;;11.47;59.38;100456.38;5228885;28;20045;-69
2022/04/09 07:05:39;;;;;;;12.52;2.55;;;10.60;97.70;;;13.24;53.82;100457.78;5229337;28;20428;-69
2022/04/09 07:08:11;;;;;;;11.05;2.17;;;11.40;96.20;;;14.07;51.05;100454.81;5229274;28;20145;-69
2022/04/09 07:10:44;;;;;;;9.10;2.28;;;12.20;93.70;;;13.65;50.54;100462.88;5228880;28;20049;-70
2022/04/09 07:13:17;;;;;;;9.27;2.65;;;12.30;91.50;;;12.54;52.16;100473.75;5228658;28;20041;-70
2022/04/09 07:15:49;;;;;;;13.70;2.28;;;11.90;90.60;;;11.47;54.11;100474.66;5229051;28;20064;-70
2022/04/09 07:18:21;;;;;;;16.30;2.92;;;11.30;91.10;;;10.81;56.46;100477.19;5229218;28;20072;-69
2022/04/09 07:20:53;;;;;;;7.88;2.50;;;10.70;92.50;;;10.48;57.71;100470.13;5228711;28;20057;-71
2022/04/09 07:23:25;;;;;;;11.88;2.05;;;10.30;93.80;;;10.65;58.32;100485.41;5228822;28;20549;-70
2022/04/09 07:25:57;;;;;;;7.60;1.60;;;10.20;95.10;;;11.07;57.27;100486.63;5228831;28;20140;-70
2022/04/09 07:28:31;;;;;;;7.45;1.65;;;10.40;95.30;;;11.50;55.18;100481.69;5229114;28;20049;-69
2022/04/09 07:31:03;;;;;;;7.80;1.90;;;10.50;94.50;;;11.65;54.72;100492.50;5228484;28;20149;-70
2022/04/09 07:33:35;;;;;;;7.25;1.48;;;10.70;93.50;;;12.07;54.36;100490.13;5228724;28;20046;-69
2022/04/09 07:36:07;;;;;;;8.02;1.95;;;11.00;93.80;;;13.60;52.64;100498.56;5228525;28;20139;-68
2022/04/09 07:38:40;;;;;;;9.75;1.45;;;11.80;94.30;;;15.15;48.99;100500.00;5228350;28;20052;-69
2022/04/09 07:41:12;;;;;;;7.18;1.65;;;12.90;92.30;;;15.90;45.83;100499.91;5228543;28;20090;-69
2022/04/09 07:43:45;;;;;;;8.93;1.67;;;13.70;86.70;;;16.60;43.73;100502.16;5228227;28;20132;-70
2022/04/09 07:46:18;;;;;;;6.00;1.30;;;14.40;81.30;;;17.43;41.80;100501.66;5228812;28;20072;-69
2022/04/09 07:48:50;;;;;;;6.32;1.50;;;15.00;77.00;;;16.97;39.88;100501.50;5228466;28;20059;-69
2022/04/09 07:51:22;;;;;;;6.05;1.27;;;15.10;71.20;;;16.17;40.36;100507.13;5228336;28;20041;-69
2022/04/09 07:53:54;;;;;;;6.75;1.50;;;14.80;68.70;;;16.19;41.34;100506.28;5228352;28;20099;-69
2022/04/09 07:56:26;;;;;;;5.45;1.42;;;14.70;70.80;;;16.72;41.51;100510.16;5228453;28;20059;-69
2022/04/09 07:58:59;;;;;;;10.65;1.67;;;14.80;72.10;;;17.05;39.78;100494.50;5228085;28;20045;-69
2022/04/09 08:01:31;;;;;;;7.70;1.38;;;15.00;69.60;;;15.50;41.36;100519.66;5228081;28;20045;-69
2022/04/09 08:04:03;;;;;;;3.20;1.05;;;14.30;68.50;;;14.10;44.85;100514.28;5228178;28;20482;-69
2022/04/09 08:06:35;;;;;;;8.07;1.90;;;13.40;72.00;;;14.50;45.92;100520.16;5228162;28;20059;-69
2022/04/09 08:09:07;;;;;;;7.18;1.50;;;13.30;75.60;;;16.01;42.71;100522.78;5227984;28;20081;-70
2022/04/09 08:11:40;;;;;;;10.55;1.67;;;13.70;74.80;;;17.52;40.61;100524.50;5227472;28;20055;-69
2022/04/09 08:14:13;;;;;;;7.50;1.77;;;14.50;73.80;;;18.86;37.15;100524.50;5227085;28;20128;-70
2022/04/09 08:16:45;;;;;;;6.07;1.60;;;15.50;69.30;;;18.54;36.29;100535.09;5227853;28;20107;-69
2022/04/09 08:19:18;;;;;;;5.10;1.50;;;15.80;65.80;;;17.93;37.81;100531.63;5227853;28;20053;-70
2022/04/09 08:21:51;;;;;;;6.60;1.27;;;15.60;66.40;;;17.77;37.75;100546.53;5227919;28;20045;-68
2022/04/09 08:24:23;;;;;;;8.38;1.25;;;15.60;65.50;;;16.73;39.31;100535.59;5227856;28;20555;-69
2022/04/09 08:26:55;;;;;;;6.45;1.90;;;15.10;66.00;;;16.64;39.56;100540.78;5227800;28;20520;-70
2022/04/09 08:29:30;;;;;;;6.25;1.85;;;14.90;66.60;;;17.45;40.60;100535.91;5227093;28;20505;-69
2022/04/09 08:32:02;;;;;;;7.45;1.88;;;15.10;70.00;;;17.47;39.83;100548.19;5227339;28;20059;-69
2022/04/09 08:34:35;;;;;;;7.53;1.70;;;15.30;68.70;;;16.87;40.34;100540.94;5227650;28;20509;-69
2022/04/09 08:37:08;;;;;;;7.15;1.50;;;15.10;68.40;;;16.23;40.57;100549.25;5227626;28;20410;-70
2022/04/09 08:39:40;;;;;;;7.72;1.80;;;14.80;67.30;;;15.77;41.84;100548.84;5227152;28;20107;-69
2022/04/09 08:42:13;;;;;;;5.95;1.55;;;14.50;68.60;;;15.67;42.22;100553.16;5227239;28;20049;-70
2022/04/09 08:44:47;;;;;;;8.77;1.83;;;14.40;69.20;;;14.69;43.22;100555.41;5227323;28;20413;-70
2022/04/09 08:47:19;;;;;;;6.63;1.67;;;13.80;69.40;;;13.67;45.52;100567.66;5227520;28;20384;-69
2022/04/09 08:49:51;;;;;;;9.70;1.52;;;13.20;71.00;;;12.71;47.82;100556.06;5227242;28;20049;-69
2022/04/09 08:52:25;;;;;;;8.50;1.80;;;12.50;73.60;;;12.11;50.23;100559.00;5226615;28;20060;-71
2022/04/09 08:54:59;;;;;;;5.30;1.80;;;12.10;76.90;;;11.97;51.67;100561.28;5227173;28;20044;-69
2022/04/09 08:57:32;;;;;;;7.05;1.63;;;11.80;79.00;;;11.78;51.71;100564.22;5227300;28;20045;-70
2022/04/09 09:00:10;;;;;;;10.43;1.67;;;11.60;79.80;;;11.37;52.19;100556.16;5227150;28;20059;-69
2022/04/09 09:02:50;;;;;;;10.77;2.10;;;11.30;80.00;;;11.10;53.11;100562.38;5227165;28;20049;-70
2022/04/09 09:05:34;;;;;;;3.85;1.20;;;11.00;82.10;;;10.82;53.65;100558.06;5227051;28;20056;-69
2022/04/09 09:08:09;;;;;;;11.43;1.48;;;10.80;83.10;;;10.56;55.06;100562.50;5226953;28;20052;-69
2022/04/09 09:10:42;;;;;;;8.13;1.65;;;10.60;85.80;;;10.37;55.45;100564.44;5226631;28;20052;-69
2022/04/09 09:13:14;;;;;;;8.50;2.00;;;10.40;86.80;;;10.23;55.40;100566.59;5226189;28;20064;-70
2022/04/09 09:15:51;;;;;;;5.40;1.30;;;10.20;87.40;;;10.28;56.27;100576.34;5226532;28;20059;-70
2022/04/09 09:18:26;;;;;;;5.80;1.42;;;10.20;89.60;;;10.51;55.67;100584.91;5227025;28;20061;-69
2022/04/09 09:21:00;;;;;;;7.05;1.63;;;10.30;89.60;;;11.01;55.04;100582.94;5226644;28;20474;-69
2022/04/09 09:23:34;;;;;;;9.02;1.52;;;10.60;89.60;;;11.86;52.75;100581.00;5226290;28;20045;-69
2022/04/09 09:26:06;;;;;;;8.85;1.55;;;11.30;87.30;;;12.29;51.72;100575.13;5226872;28;20134;-71
2022/04/09 09:28:38;;;;;;;6.13;1.60;;;11.80;85.00;;;12.51;50.75;100584.38;5226554;28;20053;-69
2022/04/09 09:31:15;;;;;;;5.88;1.35;;;12.10;82.40;;;12.28;50.60;100588.16;5226314;28;20056;-69
2022/04/09 09:33:49;;;;;;;6.53;1.13;;;12.10;81.10;;;11.97;49.88;100587.38;5226009;28;20048;-70
2022/04/09 09:36:32;;;;;;;7.03;1.23;;;11.90;78.70;;;11.63;49.66;100583.88;5226538;28;20083;-69
2022/04/09 09:39:05;;;;;;;5.95;1.27;;;11.60;77.80;;;11.37;50.36;100582.25;5226378;28;20505;-70
2022/04/09 09:41:51;;;;;;;5.57;1.70;;;11.50;78.90;;;11.20;50.75;100588.72;5225951;28;20053;-70
2022/04/09 09:44:25;;;;;;;5.88;1.52;;;11.20;79.60;;;11.17;50.12;100588.63;5226544;28;20051;-69
2022/04/09 09:47:09;;;;;;;8.00;1.40;;;11.10;78.70;;;10.99;51.27;100584.63;5226418;28;20049;-70
2022/04/09 09:49:56;;;;;;;5.65;1.50;;;10.90;80.60;;;11.04;51.94;100585.66;5226158;28;20156;-70
2022/04/09 09:52:30;;;;;;;5.43;1.30;;;10.90;81.70;;;11.19;50.64;100584.34;5226068;28;20045;-70
2022/04/09 09:55:10;;;;;;;4.20;1.17;;;11.00;80.40;;;11.18;50.59;100600.84;5226481;28;20127;-69
2022/04/09 09:57:46;;;;;;;5.05;1.33;;;11.00;79.60;;;11.29;50.97;100591.59;5226120;28;20041;-69
2022/04/09 10:00:18;;;;;;;6.55;1.58;;;11.00;80.90;;;11.23;51.41;100600.13;5226351;28;20099;-70
2022/04/09 10:02:52;;;;;;;7.75;1.83;;;11.00;81.50;;;11.27;50.99;100588.03;5225964;28;20049;-70
2022/04/09 10:05:25;;;;;;;4.85;1.52;;;11.10;80.70;;;11.43;51.38;100592.88;5225974;28;20058;-69
2022/04/09 10:07:57;;;;;;;4.43;1.45;;;11.20;81.50;;;11.63;50.70;100589.09;5226194;28;20045;-69
2022/04/09 10:10:29;;;;;;;4.90;1.33;;;11.30;81.10;;;11.71;50.28;100594.50;5226067;28;20053;-70
2022/04/09 10:13:03;;;;;;;5.28;1.42;;;11.40;80.10;;;11.72;49.91;100592.78;5225484;28;20053;-70
2022/04/09 10:15:37;;;;;;;4.47;1.38;;;11.40;79.20;;;11.61;49.47;100590.78;5226543;28;20056;-70
2022/04/09 10:18:10;;;;;;;6.70;1.65;;;11.30;78.70;;;11.53;50.74;100599.22;5225695;28;20103;-68
2022/04/09 10:20:44;;;;;;;3.88;1.42;;;11.30;80.50;;;11.38;51.31;100595.34;5225810;28;20140;-70
2022/04/09 10:23:16;;;;;;;3.97;1.20;;;11.20;80.90;;;11.49;49.88;100593.03;5225679;28;20081;-70
2022/04/09 10:25:51;;;;;;;6.60;1.38;;;11.30;79.10;;;11.36;47.39;100598.75;5226000;28;20123;-70
2022/04/09 10:28:35;;;;;;;5.18;1.27;;;11.20;74.40;;;11.36;48.08;100590.94;5225696;28;20139;-70
2022/04/09 10:31:33;;;;;;;4.53;1.50;;;11.20;75.60;;;11.45;48.85;100588.56;5225402;28;20060;-70
2022/04/09 10:34:10;;;;;;;3.55;1.15;;;11.20;76.60;;;11.66;48.73;100591.75;5225670;28;20050;-69
2022/04/09 10:37:03;;;;;;;4.82;1.38;;;11.40;76.40;;;12.02;47.58;100595.34;5227681;28;20048;-69
2022/04/09 10:40:04;;;;;;;6.05;1.42;;;11.70;75.20;;;12.26;46.46;100589.84;5230484;28;20049;-70
2022/04/09 10:42:58;;;;;;;8.18;1.25;;;11.90;74.70;;;12.44;45.16;100596.41;5164046;28;20104;-70
2022/04/09 10:45:31;;;;;;;3.83;1.33;;;12.00;71.60;;;12.60;45.26;100592.44;5168118;28;20577;-70